Kezdőlap
METAR-TAF:

METAR-TAF

Repülőterek :

Pohnpei, Mikronézia

földrajzi szélesség: 06-59N, földrajzi hosszúság: 158-12E, magasság: 2 m

Jelenlegi meteorológiai megfigyelések

A jelentés 7 órával és 21 perccel ezelõtt készült, 10:50 UTC
Kelet-északkeleti szél 5 kt
Hőmérséklet 28°C
Páratartalom 89%
Légköri nyomás 1009 hPa
Látótávolság: 24.1 km
Szórványos felhőzet 1700 lábon, Tornyos gomolyfelhő.
Szakadozott felhőzet 13000 lábon
Borult 30000 lábon

METAR: PTPN 181050Z 07005KT 15SM SCT017TCU BKN130 OVC300 28/26 A2979 RMK TCU SE LAST

Idő: 05:11 (18:11 UTC)

Előrejelzés

A jelentés 12 órával és 51 perccel ezelõtt készült, 05:20 UTC
Az előrejelzés 18-én 06 óra UTC és 19-én 06 óra UTC között érvényes
Keleti szél 8 kt
Látótávolság: 10 km
Szórványos felhőzet 1500 lábon
Szakadozott felhőzet 4500 lábon
Szakadozott felhőzet 10000 lábon
Záporok a közelben,

TAF: PTPN 180520Z 1806/1906 08008KT P6SM VCSH SCT015 BKN045 BKN100

Meteorológiai megfigyelések és előrejelzések több, mint 4000 repülőtéren (METAR és TAF jelentéseket).

A térképen piros és sárga pontok jelzik az elérhető meteorológiai állomásokat.

Mozgassa az egeret a pont fölött, hogy megjelenjen az állomás neve.

Azután kattintson az időjárási megfigyelések és előrejelzések megtekintéséhez.

A térkép megváltoztatása: kattintson a fekete keresztel jelölt zöld gombra ráközelítéshez, a vonallal jelölt zöld gombra távolításhoz, vagy a zöld nyilakra a szomszédos térképek eléréséhez.


METAR-TAF: